Latest Coastal Weather Observations for Eucla

IDW60701

Issued at 9:43 pm WST Monday 4 May 2026 (issued every 10 minutes, with the page automatically refreshed every 10 minutes)

About coastal observations | Map of coastal stations | Coastal observations for WA | Marine services | Other Formats
Station Details ID: 011003 Name: EUCLA Lat: -31.68 Lon: 128.90 Height: 93.1 m
Data from the previous 72 hours. | See also: Recent months at Eucla
Date/Time
WST
Wind Sea
Height
m
Swell Vis
km
Cloud Weather Temp
°C
Press
MSL
hPa
Rain since
9am
mm
Dir  Spd
kts
Gust
kts
Height
m
Period
s
Dir
04/09:30pm SE 7 12 - - - - - - - 13.9 1025.7 1.0
04/09:00pm WNW 5 5 - - - - - - - 13.1 1025.8 1.0
04/08:30pm SW 5 6 - - - - - - - 13.2 1025.8 1.0
04/08:00pm S 3 7 - - - - - - - 13.6 1025.6 1.0
04/07:30pm S 5 7 - - - - - - - 14.0 1025.5 1.0
04/07:00pm SSW 3 4 - - - - - - - 13.5 1025.4 1.0
04/06:30pm SSW 3 4 - - - - - - - 13.8 1025.1 1.0
04/06:00pm SSW 4 5 - - - - - - - 13.1 1024.8 1.0
04/05:30pm SSW 5 6 - - - - - - - 13.9 1024.5 1.0
04/05:00pm SE 4 6 - - - - - - - 14.2 1024.3 1.0
04/04:30pm SSW 7 15 - - - - - - - 15.9 1024.1 0.2
04/04:00pm SW 5 7 - - - - - - - 16.3 1023.8 0.2
04/03:30pm SW 7 9 - - - - - - - 16.5 1023.8 0.2
04/03:00pm SSW 6 10 - - - - - - - 16.7 1023.7 0.2
04/02:30pm S 7 11 - - - - - - - 16.9 1023.7 0.2
04/02:00pm SSW 9 18 - - - - - - - 15.9 1023.6 0.2
04/01:30pm SSW 9 16 - - - - - - - 17.2 1023.3 0.2
04/01:00pm S 9 15 - - - - - - - 18.5 1023.0 0.2
04/12:30pm S 8 13 - - - - - - - 18.6 1023.1 0.2
04/12:00pm SSW 11 16 - - - - - - Rain 17.5 1023.4 0.2
04/11:30am SSW 11 19 - - - - - - - 17.4 1023.7 0.0
04/11:00am S 12 18 - - - - - - - 16.7 1024.0 0.0
04/10:30am SW 7 11 - - - - - - - 16.8 1024.1 0.0
04/10:00am SW 7 10 - - - - - - - 14.6 1024.4 0.0
04/09:30am S 7 10 - - - - - - - 16.7 1024.3 0.0
04/09:00am SW 7 10 - - - - - - - 16.8 1024.2 4.2
04/08:30am SSW 8 15 - - - - - - - 15.6 1024.2 4.2
04/08:00am SSW 8 14 - - - - - - - 15.6 1023.9 4.2
04/07:30am SW 8 13 - - - - - - - 15.3 1023.4 4.2
04/07:00am SW 5 8 - - - - - - - 14.3 1022.9 4.2
04/06:30am WSW 5 6 - - - - - - - 14.0 1022.5 4.2
04/06:00am WSW 6 9 - - - - - - - 13.8 1022.2 4.2
04/05:30am SSW 7 10 - - - - - - - 14.1 1021.8 4.2
04/05:00am SW 6 9 - - - - - - - 13.5 1021.5 4.2
04/04:30am WSW 7 11 - - - - - - - 13.7 1021.2 4.2
04/04:00am W 5 7 - - - - - - - 13.5 1020.8 4.2
04/03:30am WSW 7 10 - - - - - - - 13.8 1020.6 4.2
04/03:00am WSW 6 11 - - - - - - - 13.3 1020.4 4.2
04/02:30am WSW 6 8 - - - - - - - 13.2 1020.3 4.2
04/02:00am WSW 6 10 - - - - - - - 13.1 1020.3 4.2
04/01:30am W 5 7 - - - - - - - 13.2 1020.5 4.2
04/01:00am WNW 4 6 - - - - - - - 13.0 1020.5 4.2
04/12:30am WSW 7 9 - - - - - - - 13.1 1020.4 4.2
04/12:00am WSW 7 10 - - - - - - Recent precip. 13.1 1020.4 4.2
 
Date/Time
WST
Wind Sea
Height
m
Swell Vis
km
Cloud Weather Temp
°C
Press
MSL
hPa
Rain since
9am
mm
Dir  Spd
kts
Gust
kts
Height
m
Period
s
Dir
03/11:30pm W 6 8 - - - - - - - 13.0 1020.3 4.2
03/11:00pm WNW 5 7 - - - - - - - 13.0 1020.4 4.0
03/10:30pm WSW 7 10 - - - - - - - 12.9 1020.7 3.8
03/10:00pm WSW 9 15 - - - - - - - 13.2 1020.8 3.8
03/09:30pm W 7 9 - - - - - - - 12.7 1020.9 3.4
03/09:00pm W 6 10 - - - - - - Rain 12.7 1021.1 3.4
03/08:30pm WSW 5 8 - - - - - - - 12.5 1021.2 3.0
03/08:00pm SW 5 7 - - - - - - - 12.6 1021.1 2.2
03/07:30pm W 9 14 - - - - - - - 13.1 1020.7 0.8
03/07:13pm WSW 13 22 - - - - - - - 14.6 1020.8 0.8
03/07:00pm W 7 11 - - - - - - - 15.3 1020.3 0.8
03/06:30pm W 7 10 - - - - - - - 14.8 1020.2 0.8
03/06:00pm W 8 13 - - - - - - - 14.5 1020.0 0.8
03/05:30pm WSW 8 13 - - - - - - - 14.4 1019.7 0.8
03/05:00pm WSW 7 10 - - - - - - - 14.9 1019.4 0.8
03/04:30pm WSW 9 15 - - - - - - - 15.4 1019.2 0.8
03/04:00pm SW 13 19 - - - - - - - 16.7 1019.0 0.8
03/03:30pm SW 12 20 - - - - - - - 17.3 1018.8 0.8
03/03:00pm SW 13 22 - - - - - - - 17.4 1018.6 0.8
03/02:30pm SW 13 19 - - - - - - - 16.7 1018.5 0.8
03/02:00pm SW 9 13 - - - - - - - 15.6 1018.5 0.8
03/01:30pm SW 10 16 - - - - - - - 16.4 1018.3 0.8
03/01:00pm WSW 10 17 - - - - - - - 16.1 1018.3 0.8
03/12:30pm WSW 12 20 - - - - - - - 16.2 1018.3 0.2
03/12:00pm WSW 9 15 - - - - - - Recent precip. 16.9 1018.4 0.2
03/11:34am WSW 15 27 - - - - - - - 14.7 1018.9 0.2
03/11:30am WSW 12 19 - - - - - - - 19.0 1018.7 0.0
03/11:00am WSW 13 22 - - - - - - - 17.8 1018.8 0.0
03/10:30am W 11 17 - - - - - - - 17.7 1019.0 0.0
03/10:00am W 11 16 - - - - - - - 17.7 1019.1 0.0
03/09:30am WSW 10 17 - - - - - - - 17.0 1019.2 0.0
03/09:00am WSW 12 17 - - - - - - - 16.1 1019.1 0.2
03/08:30am WSW 11 16 - - - - - - - 15.2 1019.1 0.2
03/08:00am W 10 15 - - - - - - - 13.4 1018.8 0.2
03/07:30am WNW 10 16 - - - - - - - 12.2 1018.7 0.2
03/07:00am WNW 9 15 - - - - - - - 10.7 1018.3 0.2
03/06:30am WNW 9 14 - - - - - - - 9.6 1018.1 0.2
03/06:00am WNW 9 14 - - - - - - - 8.9 1017.8 0.2
03/05:30am WNW 8 11 - - - - - - - 8.4 1017.6 0.2
03/05:00am WNW 7 10 - - - - - - - 8.0 1017.4 0.2
03/04:30am NW 7 10 - - - - - - - 8.3 1017.3 0.2
03/04:00am WNW 8 12 - - - - - - - 9.0 1016.9 0.2
03/03:30am WNW 9 14 - - - - - - - 9.3 1017.0 0.2
03/03:00am WNW 9 13 - - - - - - - 9.6 1017.0 0.2
03/02:30am WNW 8 10 - - - - - - - 9.2 1017.1 0.2
03/02:00am WNW 8 13 - - - - - - - 9.3 1017.0 0.2
03/01:30am WNW 8 12 - - - - - - - 9.6 1017.2 0.2
03/01:00am WNW 9 14 - - - - - - - 9.1 1017.2 0.2
03/12:30am WNW 8 13 - - - - - - - 9.5 1017.1 0.2
03/12:00am WNW 8 11 - - - - - - - 9.9 1017.2 0.2
 
Date/Time
WST
Wind Sea
Height
m
Swell Vis
km
Cloud Weather Temp
°C
Press
MSL
hPa
Rain since
9am
mm
Dir  Spd
kts
Gust
kts
Height
m
Period
s
Dir
02/11:30pm WNW 9 13 - - - - - - - 10.2 1017.3 0.2
02/11:00pm WNW 8 12 - - - - - - - 9.7 1017.4 0.2
02/10:30pm WNW 9 12 - - - - - - - 10.4 1017.5 0.2
02/10:00pm WNW 7 12 - - - - - - - 9.8 1017.8 0.2
02/09:30pm WNW 7 12 - - - - - - - 10.3 1018.0 0.2
02/09:00pm WNW 7 10 - - - - - - - 10.5 1017.9 0.2
02/08:30pm WNW 6 9 - - - - - - - 11.0 1018.0 0.2
02/08:00pm WNW 7 9 - - - - - - - 11.4 1017.9 0.2
02/07:30pm W 9 14 - - - - - - - 12.2 1017.8 0.2
02/07:00pm WNW 8 10 - - - - - - - 12.8 1017.4 0.2
02/06:30pm WNW 7 9 - - - - - - - 12.6 1017.1 0.2
02/06:00pm W 9 15 - - - - - - - 13.7 1016.9 0.2
02/05:30pm W 7 10 - - - - - - - 14.1 1016.6 0.2
02/05:00pm W 8 13 - - - - - - - 14.3 1016.1 0.2
02/04:30pm WSW 9 13 - - - - - - - 14.9 1015.7 0.2
02/04:00pm SW 10 16 - - - - - - - 15.7 1015.5 0.2
02/03:30pm SSW 10 16 - - - - - - - 15.6 1015.5 0.2
02/03:00pm SW 13 20 - - - - - - - 16.4 1015.2 0.2
02/02:30pm SW 15 24 - - - - - - - 16.4 1014.8 0.2
02/02:00pm SW 11 20 - - - - - - - 15.2 1014.7 0.2
02/01:30pm SW 11 16 - - - - - - - 13.3 1014.8 0.2
02/01:00pm WSW 11 17 - - - - - - - 13.7 1014.4 0.0
02/12:30pm WSW 12 21 - - - - - - - 16.4 1014.3 0.0
02/12:00pm SW 15 25 - - - - - - - 15.3 1014.4 0.0
02/11:30am SW 16 27 - - - - - - - 17.1 1014.3 0.0
02/11:00am WSW 17 29 - - - - - - - 17.2 1014.2 0.0
02/10:30am WSW 18 29 - - - - - - - 16.5 1014.4 0.0
02/10:23am WSW 17 29 - - - - - - - 16.4 1014.4 0.0
02/10:00am W 14 20 - - - - - - - 16.4 1014.3 0.0
02/09:42am WSW 15 26 - - - - - - - 16.3 1014.3 0.0
02/09:30am W 13 21 - - - - - - - 16.1 1014.2 0.0
02/09:00am W 14 21 - - - - - - - 14.6 1014.3 0.8
02/08:30am W 13 20 - - - - - - - 13.4 1014.2 0.8
02/08:00am WNW 13 22 - - - - - - - 12.2 1014.0 0.8
02/07:30am W 13 19 - - - - - - - 11.2 1013.8 0.8
02/07:00am WNW 12 20 - - - - - - - 10.1 1013.2 0.8
02/06:30am WNW 14 21 - - - - - - - 9.5 1013.3 0.8
02/06:00am WNW 14 22 - - - - - - - 9.1 1013.2 0.8
02/05:30am WNW 12 20 - - - - - - - 8.8 1012.7 0.8
02/05:00am WNW 12 22 - - - - - - - 8.9 1012.8 0.8
02/04:30am WNW 12 20 - - - - - - - 9.1 1012.3 0.8
02/04:00am WNW 14 22 - - - - - - - 8.8 1012.2 0.8
02/03:30am WNW 15 24 - - - - - - - 9.0 1012.2 0.8
02/03:00am WNW 17 25 - - - - - - - 9.0 1012.1 0.8
02/02:49am WNW 16 29 - - - - - - - 9.1 1012.1 0.8
02/02:30am WNW 15 23 - - - - - - - 9.0 1012.1 0.8
02/02:00am WNW 14 21 - - - - - - - 9.1 1012.4 0.8
02/01:30am WNW 12 18 - - - - - - - 9.3 1012.4 0.8
02/01:00am WNW 15 20 - - - - - - - 9.5 1012.7 0.8
02/12:30am WNW 13 20 - - - - - - - 9.8 1012.9 0.8
02/12:00am WNW 13 20 - - - - - - - 10.1 1013.1 0.8
 
Date/Time
WST
Wind Sea
Height
m
Swell Vis
km
Cloud Weather Temp
°C
Press
MSL
hPa
Rain since
9am
mm
Dir  Spd
kts
Gust
kts
Height
m
Period
s
Dir
01/11:30pm WNW 11 15 - - - - - - - 10.4 1013.2 0.8
01/11:00pm WNW 11 16 - - - - - - - 11.0 1013.4 0.8
01/10:30pm W 12 18 - - - - - - - 11.4 1013.5 0.8
01/10:00pm WNW 13 20 - - - - - - - 12.4 1013.4 0.8

Other formats

Comma delimited format used in spreadsheet applications
http://www.bom.gov.au/fwo/IDW60701/IDW60701.94647.axf

JavaScript Object Notation format (JSON) in row-major order
http://www.bom.gov.au/fwo/IDW60701/IDW60701.94647.json

Data quality

Most of these data are generated automatically and are frequently updated. Quality checks on data are not normally performed. It is possible for incorrect values to appear. Refer to information at About Latest Weather Observations and please check the disclaimer before using these data.